createdAt,value
2023-03-24T00:00:41.074Z,1.00
2023-03-24T00:04:53.149Z,1.00
2023-03-24T00:09:03.870Z,1.00
2023-03-24T00:13:12.460Z,1.00
2023-03-24T00:17:23.164Z,1.00
2023-03-24T00:21:32.618Z,1.00
2023-03-24T00:26:12.814Z,1.00
2023-03-24T00:30:22.934Z,1.00
2023-03-24T00:34:31.581Z,1.00
2023-03-24T00:38:41.706Z,1.00
2023-03-24T00:42:51.291Z,1.00
2023-03-24T00:47:00.873Z,2.90
2023-03-24T00:51:10.910Z,29.90
2023-03-24T00:55:21.193Z,55.80
2023-03-24T00:59:30.070Z,95.80
2023-03-24T01:03:40.303Z,99.90
2023-03-24T01:07:50.618Z,99.90
2023-03-24T01:11:59.217Z,99.90
2023-03-24T01:16:08.776Z,99.90
2023-03-24T01:20:36.701Z,99.90
2023-03-24T01:24:45.843Z,99.90
2023-03-24T01:28:54.996Z,99.90
2023-03-24T01:33:03.753Z,99.90
2023-03-24T01:37:12.439Z,99.90
2023-03-24T01:41:21.479Z,99.90
2023-03-24T01:45:42.182Z,99.90
2023-03-24T01:49:56.455Z,99.90
2023-03-24T01:54:11.123Z,99.90
2023-03-24T01:58:21.095Z,99.90
2023-03-24T02:02:52.262Z,99.90
2023-03-24T02:07:04.451Z,99.90
2023-03-24T02:11:13.187Z,99.90
2023-03-24T02:15:21.916Z,99.90
2023-03-24T02:20:06.643Z,99.90
2023-03-24T02:24:18.382Z,99.90
2023-03-24T02:28:48.509Z,99.90
2023-03-24T02:33:18.129Z,99.90
2023-03-24T02:37:45.008Z,99.90
2023-03-24T02:42:13.338Z,99.90
2023-03-24T02:46:27.752Z,99.90
2023-03-24T02:50:51.644Z,99.90
2023-03-24T02:55:12.282Z,99.90
2023-03-24T02:59:37.459Z,99.90
2023-03-24T03:03:52.084Z,99.90
2023-03-24T03:08:03.768Z,99.90
2023-03-24T03:12:13.491Z,89.30
2023-03-24T03:16:27.851Z,1.00
2023-03-24T03:20:42.859Z,1.00
2023-03-24T03:24:54.670Z,99.90
2023-03-24T03:29:06.442Z,1.00
2023-03-24T03:33:25.519Z,1.00
2023-03-24T03:37:55.650Z,1.00
2023-03-24T03:42:06.916Z,1.00
2023-03-24T03:46:36.318Z,1.00
2023-03-24T03:50:45.893Z,99.90
2023-03-24T03:54:55.805Z,99.90
2023-03-24T03:59:06.221Z,99.90
2023-03-24T04:03:38.711Z,99.90
2023-03-24T04:08:01.217Z,99.90
2023-03-24T04:12:42.969Z,99.90
2023-03-24T04:17:09.636Z,99.90
2023-03-24T04:21:31.262Z,99.90
2023-03-24T04:25:56.490Z,99.90
2023-03-24T04:30:17.137Z,99.90
2023-03-24T04:34:29.362Z,99.90
2023-03-24T04:38:38.520Z,99.90
2023-03-24T04:42:55.911Z,99.90
2023-03-24T04:47:07.513Z,95.60
2023-03-24T04:51:19.062Z,99.90
2023-03-24T04:55:43.323Z,25.90
2023-03-24T04:59:52.668Z,1.00
2023-03-24T05:04:02.167Z,1.00
2023-03-24T05:08:11.555Z,1.00
2023-03-24T05:12:20.141Z,1.00
2023-03-24T05:16:30.780Z,1.00
2023-03-24T05:20:39.133Z,1.00
2023-03-24T05:24:47.739Z,1.00
2023-03-24T05:28:56.509Z,1.00
2023-03-24T05:33:05.193Z,1.00
2023-03-24T05:37:15.395Z,1.00
2023-03-24T05:41:23.984Z,1.00
2023-03-24T05:45:32.652Z,1.00
2023-03-24T05:49:52.025Z,1.00
2023-03-24T05:54:00.661Z,1.00
2023-03-24T05:58:11.159Z,1.00
2023-03-24T06:02:19.479Z,1.00
2023-03-24T06:06:28.809Z,1.00
2023-03-24T06:10:37.531Z,1.00
2023-03-24T06:14:46.104Z,1.00
2023-03-24T06:18:54.881Z,1.00
2023-03-24T06:23:03.627Z,1.00
2023-03-24T06:27:15.657Z,1.00
2023-03-24T06:31:24.339Z,1.00
2023-03-24T06:35:32.905Z,1.00
2023-03-24T06:39:41.557Z,1.00
2023-03-24T06:43:50.151Z,1.00
2023-03-24T06:47:58.765Z,1.00
2023-03-24T06:52:19.365Z,1.00
2023-03-24T06:56:28.350Z,1.00
2023-03-24T07:00:37.908Z,1.00
2023-03-24T07:04:46.717Z,1.00
2023-03-24T07:08:55.305Z,1.00
2023-03-24T07:13:04.065Z,1.00
2023-03-24T07:17:12.605Z,1.00
2023-03-24T07:21:21.321Z,1.00
2023-03-24T07:25:30.267Z,1.00
2023-03-24T07:29:38.951Z,1.00
2023-03-24T07:33:47.551Z,1.00
2023-03-24T07:38:00.584Z,1.00
2023-03-24T07:42:11.742Z,1.00
2023-03-24T07:46:19.722Z,1.00
2023-03-24T07:50:29.262Z,1.00
2023-03-24T07:54:37.948Z,1.00
2023-03-24T07:58:47.290Z,1.00
2023-03-24T08:02:56.462Z,1.00
2023-03-24T08:07:05.362Z,1.00
2023-03-24T08:11:14.001Z,1.00
2023-03-24T08:15:42.994Z,1.00
2023-03-24T08:20:00.031Z,1.00
2023-03-24T08:24:01.884Z,1.00
2023-03-24T08:28:10.834Z,1.00
2023-03-24T08:32:19.413Z,1.00
2023-03-24T08:36:28.695Z,1.00
2023-03-24T08:40:39.328Z,1.00
2023-03-24T08:44:47.897Z,1.00
2023-03-24T08:48:57.575Z,1.00
2023-03-24T08:53:06.376Z,1.00
2023-03-24T08:57:15.005Z,1.00
2023-03-24T09:01:23.814Z,1.00
2023-03-24T09:05:44.094Z,1.00
2023-03-24T09:09:42.648Z,1.00
2023-03-24T09:13:51.476Z,1.00
2023-03-24T09:18:00.898Z,1.00
2023-03-24T09:22:09.518Z,1.00
2023-03-24T09:26:18.189Z,1.00
2023-03-24T09:30:28.191Z,1.00
2023-03-24T09:34:38.287Z,1.00
2023-03-24T09:38:46.901Z,1.00
2023-03-24T09:43:03.863Z,1.00
2023-03-24T09:47:38.246Z,1.00
2023-03-24T09:51:47.841Z,1.00
2023-03-24T09:55:56.684Z,1.00
2023-03-24T10:00:23.242Z,1.00
2023-03-24T10:04:32.288Z,1.00
2023-03-24T10:08:46.391Z,1.00
2023-03-24T10:12:57.414Z,1.00
2023-03-24T10:17:23.917Z,1.00
2023-03-24T10:21:36.069Z,1.00
2023-03-24T10:26:02.928Z,1.00
2023-03-24T10:30:20.341Z,1.00
2023-03-24T10:34:32.582Z,1.00
2023-03-24T10:38:41.726Z,1.00
2023-03-24T10:43:06.949Z,1.00
2023-03-24T10:47:04.521Z,1.00
2023-03-24T10:51:26.179Z,1.00
2023-03-24T10:55:39.940Z,1.00
2023-03-24T10:59:57.267Z,1.00
2023-03-24T11:04:08.203Z,1.00
2023-03-24T11:08:39.676Z,1.00
2023-03-24T11:13:02.312Z,1.00
2023-03-24T11:17:15.996Z,1.00
2023-03-24T11:21:24.904Z,1.00
2023-03-24T11:25:39.007Z,1.00
2023-03-24T11:29:55.520Z,1.00
2023-03-24T11:34:10.112Z,1.00
2023-03-24T11:38:20.657Z,1.00
2023-03-24T11:42:29.350Z,1.00
2023-03-24T11:46:40.988Z,1.00
2023-03-24T11:50:51.552Z,1.00
2023-03-24T11:55:00.223Z,1.00
2023-03-24T11:59:11.904Z,1.00
2023-03-24T12:03:26.600Z,1.00
2023-03-24T12:07:53.345Z,1.00
2023-03-24T12:12:10.671Z,1.00
2023-03-24T12:16:48.483Z,1.00
2023-03-24T12:21:16.615Z,1.00
2023-03-24T12:25:44.889Z,1.00
2023-03-24T12:30:14.905Z,1.00
2023-03-24T12:34:56.350Z,1.00
2023-03-24T12:39:32.946Z,1.00
2023-03-24T12:43:53.522Z,1.00
2023-03-24T12:48:20.372Z,1.00
2023-03-24T12:52:51.158Z,1.00
2023-03-24T12:57:07.909Z,1.00
2023-03-24T13:01:41.860Z,1.00
2023-03-24T13:05:53.530Z,1.00
2023-03-24T13:10:06.961Z,1.00
2023-03-24T13:14:18.701Z,1.00
2023-03-24T13:18:48.352Z,1.00
2023-03-24T13:22:58.368Z,1.00
2023-03-24T13:27:19.758Z,1.00
2023-03-24T13:31:37.791Z,1.00
2023-03-24T13:35:58.093Z,1.00
2023-03-24T13:40:19.309Z,1.00
2023-03-24T13:44:31.038Z,1.00
2023-03-24T13:48:47.788Z,1.00
2023-03-24T13:52:58.573Z,1.00
2023-03-24T13:57:23.201Z,1.00
2023-03-24T14:01:37.749Z,1.00
2023-03-24T14:06:01.048Z,1.00
2023-03-24T14:10:21.377Z,1.00
2023-03-24T14:14:31.117Z,1.00
2023-03-24T14:18:42.136Z,1.00
2023-03-24T14:22:51.997Z,1.00
2023-03-24T14:27:01.073Z,1.00
2023-03-24T14:31:14.466Z,1.00
2023-03-24T14:35:38.691Z,1.00
2023-03-24T14:39:49.073Z,1.00
2023-03-24T14:44:00.182Z,1.00
2023-03-24T14:48:30.304Z,1.00
2023-03-24T14:52:47.938Z,1.00
2023-03-24T14:56:58.728Z,1.00
2023-03-24T15:01:10.871Z,1.00
2023-03-24T15:05:37.001Z,1.00
2023-03-24T15:09:48.942Z,1.00
2023-03-24T15:13:59.165Z,1.00
2023-03-24T15:18:11.309Z,1.00
2023-03-24T15:22:20.356Z,1.00
2023-03-24T15:26:31.482Z,1.00
2023-03-24T15:30:40.311Z,1.00
2023-03-24T15:34:54.776Z,1.00
2023-03-24T15:39:05.992Z,1.00
2023-03-24T15:43:22.256Z,1.00
2023-03-24T15:47:33.081Z,1.00
2023-03-24T15:51:55.303Z,1.00
2023-03-24T15:56:07.132Z,1.00
2023-03-24T16:00:19.653Z,1.00
2023-03-24T16:04:30.732Z,1.00
2023-03-24T16:08:41.140Z,1.00
2023-03-24T16:12:49.909Z,1.00
2023-03-24T16:17:02.042Z,1.00
2023-03-24T16:21:16.597Z,1.00
2023-03-24T16:25:25.320Z,1.00
2023-03-24T16:29:34.057Z,1.00
2023-03-24T16:33:42.658Z,1.00
2023-03-24T16:38:12.142Z,1.00
2023-03-24T16:42:20.932Z,1.00
2023-03-24T16:46:34.931Z,1.00
2023-03-24T16:50:46.186Z,1.00
2023-03-24T16:54:54.905Z,1.00
2023-03-24T16:59:03.509Z,1.00
2023-03-24T17:03:14.223Z,1.00
2023-03-24T17:07:22.944Z,1.00
2023-03-24T17:11:34.982Z,1.00
2023-03-24T17:15:43.649Z,1.00
2023-03-24T17:19:52.414Z,1.00
2023-03-24T17:24:01.659Z,1.00
2023-03-24T17:28:18.091Z,1.00
2023-03-24T17:32:32.250Z,1.00
2023-03-24T17:36:41.525Z,1.00
2023-03-24T17:40:50.518Z,1.00
2023-03-24T17:44:59.312Z,1.00
2023-03-24T17:49:07.972Z,1.00
2023-03-24T17:53:17.224Z,1.00
2023-03-24T17:57:25.941Z,1.00
2023-03-24T18:01:35.303Z,1.00
2023-03-24T18:05:44.893Z,1.00
2023-03-24T18:09:53.566Z,1.00
2023-03-24T18:14:02.719Z,1.00
2023-03-24T18:18:11.534Z,1.00
2023-03-24T18:22:20.432Z,1.00
2023-03-24T18:26:29.717Z,1.00
2023-03-24T18:30:38.344Z,1.00
2023-03-24T18:35:08.016Z,1.00
2023-03-24T18:39:16.644Z,1.00
2023-03-24T18:43:26.621Z,1.00
2023-03-24T18:47:35.859Z,1.00
2023-03-24T18:51:46.614Z,1.00
2023-03-24T18:55:55.517Z,1.00
2023-03-24T19:00:06.099Z,1.00
2023-03-24T19:04:15.441Z,1.00
2023-03-24T19:08:47.780Z,1.00
2023-03-24T19:12:56.656Z,1.00
2023-03-24T19:17:05.656Z,1.00
2023-03-24T19:21:14.530Z,1.00
2023-03-24T19:25:23.848Z,1.00
2023-03-24T19:29:32.445Z,1.00
2023-03-24T19:33:41.098Z,1.00
2023-03-24T19:37:49.705Z,1.00
2023-03-24T19:41:59.786Z,1.00
2023-03-24T19:46:08.928Z,1.00
2023-03-24T19:50:18.502Z,1.00
2023-03-24T19:54:27.183Z,1.00
2023-03-24T19:58:35.917Z,1.00
2023-03-24T20:02:44.569Z,1.00
2023-03-24T20:06:53.279Z,1.00
2023-03-24T20:11:03.456Z,1.00
2023-03-24T20:15:12.325Z,1.00
2023-03-24T20:19:21.010Z,1.00
2023-03-24T20:23:29.782Z,1.00
2023-03-24T20:27:38.969Z,1.00
2023-03-24T20:31:47.716Z,1.00
2023-03-24T20:35:57.449Z,1.00
2023-03-24T20:40:09.268Z,1.00
2023-03-24T20:44:17.869Z,1.00
2023-03-24T20:48:26.580Z,1.00
2023-03-24T20:52:36.104Z,1.00
2023-03-24T20:56:44.937Z,1.00
2023-03-24T21:00:54.274Z,1.00
2023-03-24T21:05:03.713Z,1.00
2023-03-24T21:09:13.308Z,1.00
2023-03-24T21:13:21.964Z,1.00
2023-03-24T21:17:32.541Z,1.00
2023-03-24T21:21:42.833Z,1.00
2023-03-24T21:25:52.435Z,1.00
2023-03-24T21:30:01.045Z,1.00
2023-03-24T21:34:09.947Z,1.00
2023-03-24T21:38:18.832Z,1.00
2023-03-24T21:42:29.034Z,1.00
2023-03-24T21:46:38.017Z,1.00
2023-03-24T21:50:46.774Z,1.00
2023-03-24T21:54:57.286Z,1.00
2023-03-24T21:59:06.018Z,1.00
2023-03-24T22:03:15.683Z,1.00
2023-03-24T22:07:24.506Z,1.00
2023-03-24T22:11:34.990Z,1.00
2023-03-24T22:15:43.718Z,1.00
2023-03-24T22:19:52.546Z,1.00
2023-03-24T22:24:01.237Z,1.00
2023-03-24T22:28:09.902Z,1.00
2023-03-24T22:32:18.566Z,1.00
2023-03-24T22:36:27.364Z,1.00
2023-03-24T22:40:35.978Z,1.00
2023-03-24T22:44:44.826Z,1.00
2023-03-24T22:48:53.458Z,1.00
2023-03-24T22:53:02.146Z,1.00
2023-03-24T22:57:11.040Z,1.00
2023-03-24T23:01:19.939Z,1.00
2023-03-24T23:05:28.888Z,1.00
2023-03-24T23:09:37.848Z,1.00
2023-03-24T23:13:48.087Z,1.00
2023-03-24T23:17:57.413Z,1.00
2023-03-24T23:22:06.816Z,1.00
2023-03-24T23:26:26.046Z,1.00
2023-03-24T23:30:27.010Z,1.00
2023-03-24T23:34:37.938Z,1.00
2023-03-24T23:38:53.329Z,1.00
2023-03-24T23:43:03.297Z,1.00
2023-03-24T23:47:11.970Z,1.00
2023-03-24T23:51:20.528Z,1.00
2023-03-24T23:55:29.363Z,1.00
2023-03-24T23:59:39.166Z,1.00
